Terminal Aerodrome Forecast
Issued by NWS Duluth, MN

Home | Current Version | Previous Version | Text Only | Print | Product List | Glossary On
Versions: 1 2 3 4 5 6 7 8 9 10 11 12 13 14 15 16 17 18 19 20 21
867
FTUS43 KDLH 090532
TAFINL
TAF
KINL 090532Z 0906/1006 34012KT P6SM SCT015 BKN050
      TEMPO 0906/0910 6SM -SN BKN015
     FM091200 33010KT P6SM SCT050
     FM091500 34011KT P6SM SCT060
     FM100000 34008KT P6SM SCT120=

USA.gov is the U.S. government's official web portal to all federal, state and local government web resources and services.